sensor_id;sensor_type;location;lat;lon;timestamp;temperature;humidity
23130;DHT22;11734;51.046;13.778;2023-04-30T20:43:28;9.90;99.90
23130;DHT22;11734;51.046;13.778;2023-04-30T20:45:56;9.70;99.90
23130;DHT22;11734;51.046;13.778;2023-04-30T20:48:25;9.60;99.90
23130;DHT22;11734;51.046;13.778;2023-04-30T20:50:52;9.60;99.90
23130;DHT22;11734;51.046;13.778;2023-04-30T20:53:19;9.60;99.90
23130;DHT22;11734;51.046;13.778;2023-04-30T20:55:46;9.40;99.90
23130;DHT22;11734;51.046;13.778;2023-04-30T20:58:13;9.30;99.90
23130;DHT22;11734;51.046;13.778;2023-04-30T21:00:40;9.30;99.90
23130;DHT22;11734;51.046;13.778;2023-04-30T21:03:07;9.30;99.90
23130;DHT22;11734;51.046;13.778;2023-04-30T21:05:35;9.30;99.90
23130;DHT22;11734;51.046;13.778;2023-04-30T21:08:02;9.40;99.90
23130;DHT22;11734;51.046;13.778;2023-04-30T21:10:28;9.40;99.90
23130;DHT22;11734;51.046;13.778;2023-04-30T21:13:02;9.30;99.90
23130;DHT22;11734;51.046;13.778;2023-04-30T21:15:34;9.30;99.90
23130;DHT22;11734;51.046;13.778;2023-04-30T21:18:01;9.20;99.90
23130;DHT22;11734;51.046;13.778;2023-04-30T21:20:29;9.10;99.90
23130;DHT22;11734;51.046;13.778;2023-04-30T21:22:57;8.90;99.90
23130;DHT22;11734;51.046;13.778;2023-04-30T21:25:24;8.80;99.90
23130;DHT22;11734;51.046;13.778;2023-04-30T21:27:51;8.80;99.90
23130;DHT22;11734;51.046;13.778;2023-04-30T21:30:18;8.80;99.90
23130;DHT22;11734;51.046;13.778;2023-04-30T21:32:49;8.70;99.90
23130;DHT22;11734;51.046;13.778;2023-04-30T21:35:16;8.70;99.90
23130;DHT22;11734;51.046;13.778;2023-04-30T21:37:43;8.70;99.90
23130;DHT22;11734;51.046;13.778;2023-04-30T21:40:10;8.80;99.90
23130;DHT22;11734;51.046;13.778;2023-04-30T21:42:37;8.80;99.90
23130;DHT22;11734;51.046;13.778;2023-04-30T21:45:05;8.80;99.90
23130;DHT22;11734;51.046;13.778;2023-04-30T21:47:32;8.60;99.90
23130;DHT22;11734;51.046;13.778;2023-04-30T21:49:59;8.50;99.90
23130;DHT22;11734;51.046;13.778;2023-04-30T21:52:26;8.40;99.90
23130;DHT22;11734;51.046;13.778;2023-04-30T21:54:53;8.40;99.90
23130;DHT22;11734;51.046;13.778;2023-04-30T21:57:20;8.30;99.90
23130;DHT22;11734;51.046;13.778;2023-04-30T21:59:47;8.30;99.90
23130;DHT22;11734;51.046;13.778;2023-04-30T22:02:13;8.20;99.90
23130;DHT22;11734;51.046;13.778;2023-04-30T22:04:50;8.20;99.90
23130;DHT22;11734;51.046;13.778;2023-04-30T22:07:18;8.10;99.90
23130;DHT22;11734;51.046;13.778;2023-04-30T22:09:45;8.10;99.90
23130;DHT22;11734;51.046;13.778;2023-04-30T22:12:12;8.10;99.90
23130;DHT22;11734;51.046;13.778;2023-04-30T22:14:40;8.00;99.90
23130;DHT22;11734;51.046;13.778;2023-04-30T22:17:07;8.00;99.90
23130;DHT22;11734;51.046;13.778;2023-04-30T22:19:34;8.00;99.90
23130;DHT22;11734;51.046;13.778;2023-04-30T22:22:01;7.90;99.90
23130;DHT22;11734;51.046;13.778;2023-04-30T22:24:28;7.80;99.90
23130;DHT22;11734;51.046;13.778;2023-04-30T22:26:56;7.80;99.90
23130;DHT22;11734;51.046;13.778;2023-04-30T22:29:23;7.90;99.90
23130;DHT22;11734;51.046;13.778;2023-04-30T22:31:49;7.80;99.90
23130;DHT22;11734;51.046;13.778;2023-04-30T22:34:17;7.90;99.90
23130;DHT22;11734;51.046;13.778;2023-04-30T22:36:45;7.80;99.90
23130;DHT22;11734;51.046;13.778;2023-04-30T22:39:12;7.70;99.90
23130;DHT22;11734;51.046;13.778;2023-04-30T22:41:40;7.70;99.90
23130;DHT22;11734;51.046;13.778;2023-04-30T22:44:07;7.70;99.90
